< < Back
Terminal Aerodrome Forecast


Current Version              Previous Versions:   1  2  3  4  5  6  7  8  9  

Terminal Aerodrome Forecast

164
FTUS42 KTAE 250000 AAA
TAFDHN
TAF AMD
KDHN 250034Z 2501/2524 33006KT P6SM SKC
      TEMPO 2501/2504 3SM FU HZ SKC=

Latest METAR

327
SAUS70 KWBC 251200 RRA
MTRDHN
METAR KDHN 251153Z AUTO 34005KT 10SM CLR 08/06 A3009 RMK AO2 SLP187
T00830061 10106 20078 53015


USA.gov is the U.S. government's official web portal to all federal, state and local government web resources and services.